Echelon, New Jersey
Current Conditions -  °F | °C
As of 11:54 AM on Saturday 22 Nov 2014 (Local Time) from KVAY Reporting Station
Clear Clear  
Wind Chill: 34°   Ceiling: Unl
Heat Index: 41°   Visibility: 10mi
Dew Point: 16°   Wind: 12mph
Humidity: 36%   Direction: 220°SW
Pressure: 30.42"   Gusts: 18mph
Location:  39.8445°N, 74.9532°W
Report Text: KVAY 221654Z AUTO 22010G16KT 10SM CLR 05/M09 A3042 RMK AO2 PRESFR SLP301 T00501089
Loading
Personal Weather Stations






























Interactive Weather Map New forecast layout! Learn more

10-Day Weather Forecast

Advertisements
Track Severe Weather on mobile